createdAt,value
2023-02-03T00:01:38.002Z,100638.19
2023-02-03T00:04:06.196Z,100639.94
2023-02-03T00:06:43.645Z,100633.94
2023-02-03T00:09:44.299Z,100621.63
2023-02-03T00:13:53.026Z,100597.19
2023-02-03T00:16:19.739Z,100617.47
2023-02-03T00:18:54.299Z,100605.84
2023-02-03T00:21:35.913Z,100594.81
2023-02-03T00:25:53.502Z,100603.03
2023-02-03T00:30:39.284Z,100603.34
2023-02-03T00:33:51.161Z,100608.97
2023-02-03T00:37:10.343Z,100591.59
2023-02-03T00:40:34.742Z,100590.94
2023-02-03T00:43:36.633Z,100589.59
2023-02-03T00:46:03.240Z,100586.47
2023-02-03T00:48:31.958Z,100591.03
2023-02-03T00:51:01.351Z,100599.53
2023-02-03T00:53:27.927Z,100600.81
2023-02-03T00:55:57.830Z,100603.03
2023-02-03T00:58:47.671Z,100589.34
2023-02-03T01:01:24.799Z,100604.97
2023-02-03T01:04:12.479Z,100606.09
2023-02-03T01:06:40.327Z,100620.06
2023-02-03T01:09:10.534Z,100625.94
2023-02-03T01:11:41.038Z,100624.34
2023-02-03T01:14:07.911Z,100634.75
2023-02-03T01:19:31.400Z,100645.66
2023-02-03T01:22:15.524Z,100662.69
2023-02-03T01:25:02.351Z,100650.69
2023-02-03T01:27:28.887Z,100653.50
2023-02-03T01:29:57.487Z,100643.97
2023-02-03T01:32:26.019Z,100645.81
2023-02-03T01:34:52.527Z,100637.63
2023-02-03T01:41:13.661Z,100638.84
2023-02-03T01:43:42.890Z,100651.50
2023-02-03T01:47:22.798Z,100635.09
2023-02-03T01:53:26.576Z,100650.94
2023-02-03T01:59:21.873Z,100618.56
2023-02-03T02:01:53.674Z,100625.06
2023-02-03T02:04:21.977Z,100637.06
2023-02-03T02:06:50.870Z,100651.97
2023-02-03T02:09:57.568Z,100648.38
2023-02-03T02:12:24.193Z,100666.22
2023-02-03T02:14:50.988Z,100643.09
2023-02-03T02:17:43.041Z,100624.44
2023-02-03T02:24:24.574Z,100614.91
2023-02-03T02:27:05.093Z,100595.03
2023-02-03T02:33:18.410Z,100592.72
2023-02-03T02:35:50.741Z,100596.00
2023-02-03T02:38:26.821Z,100604.81
2023-02-03T02:41:16.380Z,100612.06
2023-02-03T02:47:03.345Z,100590.56
2023-02-03T02:50:14.828Z,100589.91
2023-02-03T02:52:46.958Z,100598.63
2023-02-03T02:55:23.225Z,100602.56
2023-02-03T02:57:51.539Z,100612.19
2023-02-03T03:00:18.766Z,100608.75
2023-02-03T03:02:45.298Z,100581.19
2023-02-03T03:05:12.638Z,100559.34
2023-02-03T03:07:48.997Z,100557.50
2023-02-03T03:14:22.766Z,100574.22
2023-02-03T03:16:57.846Z,100584.72
2023-02-03T03:19:35.141Z,100590.56
2023-02-03T03:23:05.001Z,100580.94
2023-02-03T03:25:47.693Z,100603.91
2023-02-03T03:28:24.581Z,100615.94
2023-02-03T03:45:01.553Z,100595.63
2023-02-03T03:48:10.175Z,100602.16
2023-02-03T03:51:29.853Z,100596.81
2023-02-03T03:55:02.712Z,100610.00
2023-02-03T03:57:43.023Z,100599.44
2023-02-03T04:00:14.973Z,100602.00
2023-02-03T04:03:11.671Z,100591.59
2023-02-03T04:05:41.915Z,100586.69
2023-02-03T04:08:08.418Z,100581.53
2023-02-03T04:10:37.084Z,100590.56
2023-02-03T04:13:52.744Z,100579.72
2023-02-03T04:16:48.264Z,100584.56
2023-02-03T04:19:14.810Z,100597.91
2023-02-03T04:22:10.048Z,100587.75
2023-02-03T04:24:45.741Z,100579.03
2023-02-03T04:27:12.354Z,100589.34
2023-02-03T04:29:40.373Z,100564.22
2023-02-03T04:32:07.019Z,100580.56
2023-02-03T04:34:33.711Z,100591.59
2023-02-03T04:37:00.176Z,100589.03
2023-02-03T04:39:26.694Z,100594.13
2023-02-03T04:41:55.511Z,100588.38
2023-02-03T04:44:22.034Z,100589.09
2023-02-03T04:46:49.921Z,100593.44
2023-02-03T04:49:16.378Z,100592.94
2023-02-03T04:51:43.409Z,100584.31
2023-02-03T04:54:10.020Z,100591.28
2023-02-03T04:56:37.485Z,100568.69
2023-02-03T04:59:04.011Z,100564.16
2023-02-03T05:01:30.925Z,100566.69
2023-02-03T05:03:58.700Z,100573.50
2023-02-03T05:06:26.399Z,100562.78
2023-02-03T05:08:53.016Z,100551.94
2023-02-03T05:11:19.734Z,100565.34
2023-02-03T05:13:46.253Z,100557.53
2023-02-03T05:16:12.903Z,100557.06
2023-02-03T05:18:39.671Z,100554.34
2023-02-03T05:21:07.915Z,100552.84
2023-02-03T05:23:36.608Z,100551.25
2023-02-03T05:26:06.217Z,100540.69
2023-02-03T05:28:32.766Z,100548.53
2023-02-03T05:30:59.426Z,100548.00
2023-02-03T05:33:26.084Z,100552.84
2023-02-03T05:35:52.550Z,100562.13
2023-02-03T05:38:20.932Z,100562.03
2023-02-03T05:40:48.647Z,100564.91
2023-02-03T05:43:15.300Z,100559.81
2023-02-03T05:45:42.007Z,100562.94
2023-02-03T05:48:08.915Z,100581.59
2023-02-03T05:50:38.497Z,100563.09
2023-02-03T05:53:06.025Z,100579.84
2023-02-03T05:55:35.025Z,100572.16
2023-02-03T05:58:01.596Z,100553.00
2023-02-03T06:00:29.181Z,100574.22
2023-02-03T06:02:58.549Z,100567.03
2023-02-03T06:05:26.070Z,100570.53
2023-02-03T06:07:52.731Z,100581.03
2023-02-03T06:10:19.867Z,100588.06
2023-02-03T06:12:48.210Z,100581.69
2023-02-03T06:15:15.304Z,100553.72
2023-02-03T06:17:44.731Z,100568.84
2023-02-03T06:20:19.787Z,100569.66
2023-02-03T06:22:48.399Z,100572.38
2023-02-03T06:25:14.981Z,100587.34
2023-02-03T06:27:41.887Z,100584.56
2023-02-03T06:30:20.063Z,100577.00
2023-02-03T06:32:48.830Z,100577.28
2023-02-03T06:35:15.508Z,100560.84
2023-02-03T06:37:42.395Z,100557.75
2023-02-03T06:40:10.686Z,100567.44
2023-02-03T06:42:37.328Z,100573.97
2023-02-03T06:45:04.844Z,100567.97
2023-02-03T06:50:50.591Z,100559.16
2023-02-03T06:53:17.356Z,100569.44
2023-02-03T06:55:43.901Z,100568.53
2023-02-03T06:58:10.451Z,100576.09
2023-02-03T07:00:44.106Z,100573.03
2023-02-03T07:03:14.823Z,100558.88
2023-02-03T07:08:52.983Z,100573.09
2023-02-03T07:11:25.880Z,100565.03
2023-02-03T07:13:55.735Z,100572.72
2023-02-03T07:16:22.432Z,100580.88
2023-02-03T07:22:25.077Z,100571.56
2023-02-03T07:28:03.817Z,100573.69
2023-02-03T07:30:32.271Z,100579.91
2023-02-03T07:33:44.828Z,100578.00
2023-02-03T07:36:37.027Z,100586.94
2023-02-03T07:39:20.449Z,100565.69
2023-02-03T07:41:49.283Z,100576.31
2023-02-03T07:44:18.323Z,100565.59
2023-02-03T07:46:45.041Z,100578.38
2023-02-03T07:49:12.158Z,100553.28
2023-02-03T07:51:38.934Z,100568.31
2023-02-03T07:54:05.843Z,100569.75
2023-02-03T07:56:35.006Z,100568.13
2023-02-03T08:01:58.933Z,100574.13
2023-02-03T08:04:25.514Z,100583.59
2023-02-03T08:17:38.153Z,100599.59
2023-02-03T08:20:07.866Z,100578.78
2023-02-03T08:22:35.730Z,100610.31
2023-02-03T08:25:14.853Z,100613.31
2023-02-03T08:38:11.295Z,100619.53
2023-02-03T08:40:38.360Z,100592.72
2023-02-03T08:46:03.860Z,100617.22
2023-02-03T08:59:52.458Z,100615.03
2023-02-03T09:05:13.633Z,100638.41
2023-02-03T09:10:23.860Z,100634.66
2023-02-03T09:13:10.996Z,100617.03
2023-02-03T09:15:52.974Z,100633.06
2023-02-03T09:18:20.398Z,100636.09
2023-02-03T09:20:52.969Z,100615.75
2023-02-03T09:23:35.110Z,100624.31
2023-02-03T09:26:02.833Z,100643.66
2023-02-03T09:28:30.762Z,100631.75
2023-02-03T09:31:01.016Z,100638.06
2023-02-03T09:33:27.791Z,100640.38
2023-02-03T09:35:54.923Z,100618.25
2023-02-03T09:38:23.330Z,100621.31
2023-02-03T09:41:09.384Z,100618.88
2023-02-03T09:43:43.266Z,100621.44
2023-02-03T09:46:22.549Z,100633.69
2023-02-03T09:49:00.326Z,100626.47
2023-02-03T09:51:36.350Z,100623.69
2023-02-03T09:54:20.306Z,100627.19
2023-02-03T09:56:49.355Z,100635.03
2023-02-03T09:59:16.338Z,100634.88
2023-02-03T10:05:25.481Z,100639.03
2023-02-03T10:08:03.306Z,100636.56
2023-02-03T10:10:38.789Z,100639.91
2023-02-03T10:13:15.925Z,100630.41
2023-02-03T10:16:01.964Z,100618.69
2023-02-03T10:18:30.875Z,100633.56
2023-02-03T10:21:01.928Z,100643.13
2023-02-03T10:23:31.619Z,100637.28
2023-02-03T10:26:01.924Z,100620.72
2023-02-03T10:28:31.600Z,100642.38
2023-02-03T10:31:00.611Z,100607.03
2023-02-03T10:33:29.256Z,100623.91
2023-02-03T10:36:04.520Z,100640.00
2023-02-03T10:38:43.311Z,100627.66
2023-02-03T10:41:10.631Z,100635.47
2023-02-03T10:43:39.944Z,100643.81
2023-02-03T10:46:06.673Z,100628.34
2023-02-03T10:48:33.158Z,100635.44
2023-02-03T10:51:02.746Z,100630.59
2023-02-03T10:53:33.723Z,100625.78
2023-02-03T10:56:04.800Z,100630.09
2023-02-03T10:58:34.289Z,100633.09
2023-02-03T11:01:10.631Z,100617.69
2023-02-03T11:03:42.485Z,100619.38
2023-02-03T11:06:12.881Z,100620.13
2023-02-03T11:08:42.359Z,100604.81
2023-02-03T11:11:14.306Z,100617.22
2023-02-03T11:13:41.063Z,100627.16
2023-02-03T11:16:14.017Z,100618.97
2023-02-03T11:18:52.112Z,100623.44
2023-02-03T11:21:22.398Z,100626.34
2023-02-03T11:23:53.159Z,100630.03
2023-02-03T11:30:06.665Z,100631.63
2023-02-03T11:32:36.240Z,100649.16
2023-02-03T11:35:13.377Z,100635.72
2023-02-03T11:37:42.801Z,100658.63
2023-02-03T11:40:27.811Z,100643.16
2023-02-03T11:43:05.358Z,100653.66
2023-02-03T11:45:37.882Z,100665.03
2023-02-03T11:48:17.848Z,100651.81
2023-02-03T11:50:49.864Z,100652.69
2023-02-03T11:53:29.925Z,100654.53
2023-02-03T11:56:16.953Z,100644.91
2023-02-03T12:00:18.732Z,100658.13
2023-02-03T12:02:29.224Z,100653.66
2023-02-03T12:05:14.991Z,100639.78
2023-02-03T12:08:16.643Z,100638.59
2023-02-03T12:14:00.233Z,100645.16
2023-02-03T12:16:42.922Z,100644.34
2023-02-03T12:19:18.001Z,100638.91
2023-02-03T12:21:46.556Z,100643.31
2023-02-03T12:24:24.336Z,100651.47
2023-02-03T12:27:00.919Z,100651.28
2023-02-03T12:29:32.646Z,100658.88
2023-02-03T12:32:06.825Z,100653.13
2023-02-03T12:34:37.270Z,100655.75
2023-02-03T12:37:08.319Z,100659.00
2023-02-03T12:40:24.147Z,100654.81
2023-02-03T12:46:17.848Z,100647.97
2023-02-03T12:48:53.392Z,100650.00
2023-02-03T12:51:30.792Z,100652.25
2023-02-03T12:54:02.965Z,100644.06
2023-02-03T12:56:34.443Z,100657.25
2023-02-03T12:59:06.088Z,100641.94
2023-02-03T13:01:37.700Z,100648.75
2023-02-03T13:04:10.683Z,100661.44
2023-02-03T13:06:45.847Z,100655.19
2023-02-03T13:09:25.963Z,100647.75
2023-02-03T13:12:01.926Z,100643.34
2023-02-03T13:14:33.024Z,100638.13
2023-02-03T13:17:07.947Z,100645.25
2023-02-03T13:19:41.240Z,100647.47
2023-02-03T13:22:12.203Z,100654.44
2023-02-03T13:24:55.099Z,100655.38
2023-02-03T13:27:40.366Z,100663.44
2023-02-03T13:30:21.304Z,100654.22
2023-02-03T13:33:22.596Z,100660.94
2023-02-03T13:36:05.133Z,100640.63
2023-02-03T13:39:05.020Z,100649.94
2023-02-03T13:41:38.240Z,100641.44
2023-02-03T13:44:12.520Z,100644.63
2023-02-03T13:46:40.475Z,100644.41
2023-02-03T13:49:09.540Z,100628.72
2023-02-03T13:51:42.720Z,100623.66
2023-02-03T13:54:17.163Z,100617.94
2023-02-03T13:56:54.362Z,100641.25
2023-02-03T13:59:29.312Z,100641.25
2023-02-03T14:02:44.565Z,100649.09
2023-02-03T14:05:47.935Z,100659.06
2023-02-03T14:08:52.638Z,100657.03
2023-02-03T14:11:41.974Z,100661.50
2023-02-03T14:14:55.395Z,100674.81
2023-02-03T14:17:56.031Z,100666.22
2023-02-03T14:20:43.103Z,100656.28
2023-02-03T14:23:18.582Z,100647.94
2023-02-03T14:25:48.248Z,100651.72
2023-02-03T14:28:18.018Z,100652.09
2023-02-03T14:31:08.500Z,100657.88
2023-02-03T14:34:07.803Z,100663.59
2023-02-03T14:36:38.959Z,100667.38
2023-02-03T14:39:42.690Z,100687.91
2023-02-03T14:42:17.886Z,100677.88
2023-02-03T14:44:57.997Z,100696.47
2023-02-03T14:47:38.371Z,100695.94
2023-02-03T14:50:21.223Z,100702.34
2023-02-03T14:53:06.925Z,100705.38
2023-02-03T14:55:46.347Z,100715.81
2023-02-03T14:58:25.857Z,100725.09
2023-02-03T15:00:52.444Z,100714.78
2023-02-03T15:03:21.782Z,100729.25
2023-02-03T15:05:50.605Z,100743.53
2023-02-03T15:08:37.323Z,100743.56
2023-02-03T15:11:33.333Z,100758.06
2023-02-03T15:14:20.951Z,100759.72
2023-02-03T15:16:50.624Z,100767.38
2023-02-03T15:19:19.086Z,100770.09
2023-02-03T15:21:45.664Z,100758.41
2023-02-03T15:24:14.699Z,100774.91
2023-02-03T15:26:47.942Z,100783.34
2023-02-03T15:29:23.609Z,100778.09
2023-02-03T15:31:55.336Z,100775.00
2023-02-03T15:34:27.361Z,100783.78
2023-02-03T15:36:57.052Z,100785.75
2023-02-03T15:39:38.149Z,100784.59
2023-02-03T15:42:12.344Z,100784.25
2023-02-03T15:44:43.736Z,100781.53
2023-02-03T15:47:23.101Z,100785.41
2023-02-03T15:49:58.805Z,100784.19
2023-02-03T15:52:27.951Z,100796.09
2023-02-03T15:55:03.849Z,100787.06
2023-02-03T15:57:34.806Z,100794.47
2023-02-03T16:00:11.378Z,100793.34
2023-02-03T16:02:44.411Z,100791.53
2023-02-03T16:05:24.071Z,100799.00
2023-02-03T16:07:51.081Z,100798.53
2023-02-03T16:10:26.814Z,100804.72
2023-02-03T16:13:09.943Z,100807.38
2023-02-03T16:15:36.618Z,100809.59
2023-02-03T16:18:03.583Z,100811.50
2023-02-03T16:20:30.505Z,100821.44
2023-02-03T16:26:29.903Z,100836.84
2023-02-03T16:29:14.553Z,100838.09
2023-02-03T16:31:44.635Z,100838.63
2023-02-03T16:34:16.572Z,100840.13
2023-02-03T16:36:44.178Z,100830.47
2023-02-03T16:39:12.618Z,100840.53
2023-02-03T16:41:39.414Z,100842.09
2023-02-03T16:44:06.404Z,100845.28
2023-02-03T16:46:34.280Z,100854.69
2023-02-03T16:49:00.812Z,100867.69
2023-02-03T16:51:33.833Z,100865.28
2023-02-03T16:54:00.544Z,100867.94
2023-02-03T16:56:27.183Z,100873.25
2023-02-03T16:58:53.744Z,100862.63
2023-02-03T17:01:20.397Z,100871.78
2023-02-03T17:03:48.614Z,100873.72
2023-02-03T17:06:15.213Z,100886.09
2023-02-03T17:08:42.772Z,100880.59
2023-02-03T17:11:13.913Z,100881.03
2023-02-03T17:13:40.569Z,100883.03
2023-02-03T17:16:10.379Z,100893.63
2023-02-03T17:18:37.454Z,100879.31
2023-02-03T17:21:07.386Z,100882.88
2023-02-03T17:23:34.224Z,100890.66
2023-02-03T17:26:00.842Z,100877.59
2023-02-03T17:28:29.213Z,100895.94
2023-02-03T17:30:57.109Z,100890.72
2023-02-03T17:33:24.143Z,100888.72
2023-02-03T17:36:00.327Z,100894.78
2023-02-03T17:38:28.685Z,100884.16
2023-02-03T17:54:40.196Z,100925.31
2023-02-03T17:57:09.921Z,100922.78
2023-02-03T17:59:36.447Z,100935.91
2023-02-03T18:02:03.586Z,100935.53
2023-02-03T18:04:30.376Z,100936.63
2023-02-03T18:06:59.837Z,100932.91
2023-02-03T18:09:26.693Z,100924.44
2023-02-03T18:11:55.431Z,100925.06
2023-02-03T18:14:22.355Z,100927.03
2023-02-03T18:16:48.930Z,100932.19
2023-02-03T18:19:15.840Z,100938.78
2023-02-03T18:21:43.547Z,100943.59
2023-02-03T18:24:11.555Z,100942.94
2023-02-03T18:26:46.388Z,100947.19
2023-02-03T18:29:14.572Z,100958.25
2023-02-03T18:31:41.451Z,100956.00
2023-02-03T18:34:08.190Z,100960.72
2023-02-03T18:36:34.696Z,100965.38
2023-02-03T18:39:01.520Z,100960.97
2023-02-03T18:41:28.414Z,100971.38
2023-02-03T18:43:55.523Z,100958.69
2023-02-03T18:46:30.028Z,100966.41
2023-02-03T18:48:57.145Z,100963.53
2023-02-03T19:08:01.870Z,100971.63
2023-02-03T19:24:16.733Z,100983.91
2023-02-03T19:26:57.425Z,100985.50
2023-02-03T19:29:28.270Z,100994.16
2023-02-03T19:31:55.470Z,100990.94
2023-02-03T19:34:22.513Z,100994.03
2023-02-03T19:36:49.017Z,100998.97
2023-02-03T19:39:17.250Z,101010.69
2023-02-03T19:41:43.734Z,101007.84
2023-02-03T19:44:10.402Z,101020.94
2023-02-03T19:46:37.538Z,101026.03
2023-02-03T19:49:05.057Z,101026.56
2023-02-03T19:51:31.625Z,101032.72
2023-02-03T19:53:58.542Z,101030.22
2023-02-03T19:56:26.464Z,101027.06
2023-02-03T19:58:53.660Z,101023.50
2023-02-03T20:01:21.027Z,101035.00
2023-02-03T20:03:47.660Z,101048.22
2023-02-03T20:06:14.404Z,101049.66
2023-02-03T20:08:42.964Z,101055.44
2023-02-03T20:11:09.870Z,101057.19
2023-02-03T20:13:37.776Z,101061.75
2023-02-03T20:16:04.866Z,101074.72
2023-02-03T20:18:31.446Z,101065.56
2023-02-03T20:20:57.966Z,101062.59
2023-02-03T20:23:25.231Z,101064.72
2023-02-03T20:25:53.002Z,101059.56
2023-02-03T20:28:19.939Z,101063.63
2023-02-03T20:30:51.327Z,101060.28
2023-02-03T20:33:18.104Z,101065.72
2023-02-03T20:35:44.925Z,101063.50
2023-02-03T20:38:12.392Z,101070.97
2023-02-03T20:40:38.919Z,101069.94
2023-02-03T20:43:15.219Z,101072.75
2023-02-03T20:45:41.931Z,101076.81
2023-02-03T20:48:22.400Z,101075.00
2023-02-03T20:50:51.405Z,101064.38
2023-02-03T20:53:20.947Z,101076.16
2023-02-03T20:55:48.480Z,101080.53
2023-02-03T20:58:18.464Z,101076.97
2023-02-03T21:00:46.496Z,101076.97
2023-02-03T21:03:16.754Z,101094.22
2023-02-03T21:05:46.621Z,101083.09
2023-02-03T21:08:14.790Z,101083.84
2023-02-03T21:10:44.712Z,101105.38
2023-02-03T21:13:22.230Z,101095.47
2023-02-03T21:42:51.765Z,101113.94
2023-02-03T21:45:26.556Z,101106.06
2023-02-03T21:47:53.235Z,101110.13
2023-02-03T21:50:30.497Z,101114.06
2023-02-03T21:52:57.594Z,101109.06
2023-02-03T21:55:24.101Z,101116.53
2023-02-03T21:57:54.281Z,101122.13
2023-02-03T22:00:40.785Z,101114.22
2023-02-03T22:03:16.695Z,101112.94
2023-02-03T22:05:43.387Z,101125.84
2023-02-03T22:08:17.454Z,101139.81
2023-02-03T22:10:43.937Z,101135.59
2023-02-03T22:13:11.842Z,101139.63
2023-02-03T22:15:38.417Z,101140.84
2023-02-03T22:18:05.201Z,101131.50
2023-02-03T22:20:32.141Z,101124.78
2023-02-03T22:22:58.898Z,101131.56
2023-02-03T22:25:25.443Z,101132.06
2023-02-03T22:27:53.071Z,101149.53
2023-02-03T22:30:21.150Z,101164.78
2023-02-03T22:32:47.662Z,101153.56
2023-02-03T22:35:14.282Z,101173.69
2023-02-03T22:37:40.853Z,101159.19
2023-02-03T22:40:08.161Z,101159.63
2023-02-03T22:42:34.738Z,101150.00
2023-02-03T22:45:01.664Z,101162.88
2023-02-03T22:47:29.594Z,101162.94
2023-02-03T22:49:56.101Z,101168.28
2023-02-03T22:52:22.793Z,101173.97
2023-02-03T22:54:49.279Z,101179.88
2023-02-03T22:57:15.829Z,101182.88
2023-02-03T22:59:42.295Z,101192.63
2023-02-03T23:02:08.933Z,101196.03
2023-02-03T23:04:36.902Z,101198.06
2023-02-03T23:07:03.418Z,101207.78
2023-02-03T23:09:29.995Z,101201.34
2023-02-03T23:11:56.539Z,101199.81
2023-02-03T23:14:23.355Z,101197.84
2023-02-03T23:16:49.858Z,101199.47
2023-02-03T23:19:16.474Z,101208.69
2023-02-03T23:21:44.415Z,101215.72
2023-02-03T23:24:10.951Z,101214.81
2023-02-03T23:26:37.518Z,101215.53
2023-02-03T23:29:04.065Z,101221.03
2023-02-03T23:31:30.684Z,101218.38
2023-02-03T23:33:57.259Z,101225.31
2023-02-03T23:36:23.773Z,101222.25
2023-02-03T23:38:51.635Z,101227.78
2023-02-03T23:41:18.203Z,101232.22
2023-02-03T23:43:44.652Z,101224.78
2023-02-03T23:46:11.503Z,101222.59
2023-02-03T23:48:38.467Z,101228.66
2023-02-03T23:51:05.006Z,101223.66
2023-02-03T23:53:31.602Z,101237.81
2023-02-03T23:55:59.588Z,101236.59
2023-02-03T23:58:26.337Z,101249.09
